createdAt,value
2023-04-26T00:02:18.685Z,1.30
2023-04-26T00:04:47.362Z,1.10
2023-04-26T00:07:15.799Z,1.30
2023-04-26T00:09:44.471Z,0.87
2023-04-26T00:12:12.021Z,0.90
2023-04-26T00:14:38.922Z,0.70
2023-04-26T00:17:07.474Z,0.90
2023-04-26T00:19:34.786Z,0.83
2023-04-26T00:22:02.084Z,0.77
2023-04-26T00:24:29.558Z,0.73
2023-04-26T00:26:56.346Z,0.77
2023-04-26T00:29:23.338Z,0.90
2023-04-26T00:31:50.768Z,0.80
2023-04-26T00:34:17.639Z,0.80
2023-04-26T00:36:44.686Z,0.90
2023-04-26T00:39:11.559Z,0.70
2023-04-26T00:41:38.601Z,1.20
2023-04-26T00:44:05.981Z,1.10
2023-04-26T00:46:32.851Z,1.23
2023-04-26T00:49:00.440Z,0.90
2023-04-26T00:51:27.322Z,1.13
2023-04-26T00:53:54.291Z,0.90
2023-04-26T00:56:21.826Z,1.03
2023-04-26T00:58:48.605Z,0.80
2023-04-26T01:01:15.735Z,0.80
2023-04-26T01:03:44.551Z,0.77
2023-04-26T01:06:12.643Z,0.87
2023-04-26T01:08:39.602Z,0.77
2023-04-26T01:11:06.465Z,0.67
2023-04-26T01:13:35.593Z,0.60
2023-04-26T01:16:02.563Z,0.53
2023-04-26T01:18:29.353Z,0.60
2023-04-26T01:20:57.039Z,1.00
2023-04-26T01:23:23.844Z,0.63
2023-04-26T01:25:50.743Z,0.70
2023-04-26T01:28:17.765Z,0.80
2023-04-26T01:30:44.605Z,0.70
2023-04-26T01:33:11.674Z,0.80
2023-04-26T01:35:38.577Z,0.97
2023-04-26T01:38:05.402Z,0.83
2023-04-26T01:40:32.251Z,0.80
2023-04-26T01:42:59.611Z,0.93
2023-04-26T01:45:26.672Z,0.80
2023-04-26T01:47:54.336Z,0.80
2023-04-26T01:50:21.424Z,0.77
2023-04-26T01:52:48.332Z,0.80
2023-04-26T01:55:15.149Z,0.80
2023-04-26T01:57:42.022Z,0.90
2023-04-26T02:00:09.964Z,0.90
2023-04-26T02:02:36.912Z,0.87
2023-04-26T02:05:03.931Z,0.90
2023-04-26T02:07:31.213Z,1.07
2023-04-26T02:09:59.740Z,0.93
2023-04-26T02:12:26.494Z,1.00
2023-04-26T02:14:53.362Z,1.13
2023-04-26T02:17:23.675Z,1.00
2023-04-26T02:19:50.829Z,1.00
2023-04-26T02:22:17.638Z,1.23
2023-04-26T02:24:44.683Z,1.00
2023-04-26T02:27:11.776Z,1.20
2023-04-26T02:29:44.318Z,1.10
2023-04-26T02:32:14.965Z,1.00
2023-04-26T02:34:42.553Z,1.00
2023-04-26T02:37:09.497Z,0.97
2023-04-26T02:39:36.520Z,1.00
2023-04-26T02:42:04.562Z,0.90
2023-04-26T02:44:31.439Z,1.37
2023-04-26T02:46:58.464Z,0.70
2023-04-26T02:49:25.513Z,1.20
2023-04-26T02:51:52.320Z,1.20
2023-04-26T02:54:19.976Z,1.03
2023-04-26T02:56:46.858Z,1.30
2023-04-26T02:59:13.687Z,0.97
2023-04-26T03:01:40.551Z,1.30
2023-04-26T03:04:07.944Z,1.10
2023-04-26T03:06:35.090Z,0.90
2023-04-26T03:09:02.289Z,1.17
2023-04-26T03:11:29.167Z,0.80
2023-04-26T03:13:56.243Z,1.17
2023-04-26T03:16:23.650Z,1.23
2023-04-26T03:18:50.852Z,1.20
2023-04-26T03:21:17.922Z,1.07
2023-04-26T03:23:44.815Z,1.27
2023-04-26T03:26:11.735Z,1.20
2023-04-26T03:28:38.603Z,1.10
2023-04-26T03:31:05.417Z,0.90
2023-04-26T03:33:32.438Z,1.07
2023-04-26T03:35:59.301Z,1.20
2023-04-26T03:38:26.720Z,1.00
2023-04-26T03:40:53.521Z,1.00
2023-04-26T03:43:20.344Z,1.00
2023-04-26T03:45:49.368Z,0.90
2023-04-26T03:48:17.319Z,1.13
2023-04-26T03:50:46.561Z,1.03
2023-04-26T03:53:13.435Z,1.33
2023-04-26T03:55:40.371Z,1.00
2023-04-26T03:58:08.177Z,0.90
2023-04-26T04:00:38.431Z,0.70
2023-04-26T04:03:07.382Z,1.00
2023-04-26T04:05:34.732Z,1.20
2023-04-26T04:08:01.980Z,0.73
2023-04-26T04:10:29.183Z,1.17
2023-04-26T04:12:56.397Z,0.70
2023-04-26T04:15:23.395Z,0.93
2023-04-26T04:17:50.557Z,0.87
2023-04-26T04:20:17.959Z,1.00
2023-04-26T04:22:44.756Z,0.90
2023-04-26T04:25:11.891Z,1.03
2023-04-26T04:27:38.837Z,1.00
2023-04-26T04:30:09.187Z,1.30
2023-04-26T04:32:37.024Z,1.30
2023-04-26T04:35:05.258Z,1.50
2023-04-26T04:37:34.969Z,1.40
2023-04-26T04:40:02.048Z,1.30
2023-04-26T04:42:28.984Z,1.40
2023-04-26T04:44:56.962Z,1.20
2023-04-26T04:47:24.399Z,1.27
2023-04-26T04:49:52.039Z,1.47
2023-04-26T04:52:21.394Z,1.30
2023-04-26T04:54:48.741Z,1.40
2023-04-26T04:57:16.931Z,1.73
2023-04-26T04:59:43.830Z,1.10
2023-04-26T05:02:11.305Z,1.27
2023-04-26T05:04:38.371Z,1.60
2023-04-26T05:07:06.663Z,1.20
2023-04-26T05:09:33.762Z,1.30
2023-04-26T05:12:00.857Z,1.10
2023-04-26T05:14:29.755Z,1.00
2023-04-26T05:16:56.712Z,1.00
2023-04-26T05:19:23.600Z,1.03
2023-04-26T05:21:51.067Z,1.10
2023-04-26T05:24:17.830Z,0.93
2023-04-26T05:26:44.853Z,1.20
2023-04-26T05:29:11.758Z,1.03
2023-04-26T05:31:38.774Z,1.10
2023-04-26T05:34:05.612Z,1.30
2023-04-26T05:36:33.414Z,1.00
2023-04-26T05:39:00.188Z,1.13
2023-04-26T05:41:27.170Z,0.80
2023-04-26T05:43:54.898Z,0.80
2023-04-26T05:46:22.458Z,0.90
2023-04-26T05:48:49.279Z,0.70
2023-04-26T05:51:18.603Z,0.80
2023-04-26T05:53:45.397Z,0.80
2023-04-26T05:56:12.301Z,0.70
2023-04-26T05:58:39.786Z,0.83
2023-04-26T06:01:07.053Z,1.10
2023-04-26T06:03:34.923Z,1.20
2023-04-26T06:06:02.095Z,0.90
2023-04-26T06:08:29.683Z,0.90
2023-04-26T06:10:57.162Z,1.20
2023-04-26T06:13:25.126Z,1.07
2023-04-26T06:15:53.734Z,0.90
2023-04-26T06:18:20.659Z,0.70
2023-04-26T06:20:47.495Z,1.03
2023-04-26T06:23:14.689Z,1.40
2023-04-26T06:25:44.823Z,1.30
2023-04-26T06:28:12.651Z,1.10
2023-04-26T06:30:39.730Z,1.30
2023-04-26T06:33:06.530Z,0.90
2023-04-26T06:35:33.549Z,1.10
2023-04-26T06:38:00.443Z,1.03
2023-04-26T06:40:28.025Z,1.20
2023-04-26T06:42:55.628Z,0.90
2023-04-26T06:45:23.314Z,1.00
2023-04-26T06:47:53.492Z,0.80
2023-04-26T06:50:20.685Z,1.00
2023-04-26T06:52:48.379Z,1.00
2023-04-26T06:55:15.194Z,0.90
2023-04-26T06:57:42.515Z,0.97
2023-04-26T07:00:10.396Z,0.90
2023-04-26T07:02:37.867Z,1.07
2023-04-26T07:05:05.377Z,0.80
2023-04-26T07:07:32.328Z,0.70
2023-04-26T07:09:59.105Z,1.00
2023-04-26T07:12:26.472Z,0.90
2023-04-26T07:14:53.334Z,0.73
2023-04-26T07:17:21.579Z,0.70
2023-04-26T07:19:48.488Z,0.70
2023-04-26T07:22:16.234Z,0.80
2023-04-26T07:24:42.990Z,0.80
2023-04-26T07:27:10.159Z,0.80
2023-04-26T07:29:37.003Z,0.70
2023-04-26T07:32:03.983Z,0.70
2023-04-26T07:34:30.957Z,0.70
2023-04-26T07:36:58.015Z,0.73
2023-04-26T07:39:25.685Z,0.80
2023-04-26T07:41:52.446Z,0.90
2023-04-26T07:44:19.338Z,0.90
2023-04-26T07:46:46.473Z,0.80
2023-04-26T07:49:13.860Z,0.70
2023-04-26T07:51:46.219Z,0.70
2023-04-26T07:54:13.086Z,0.67
2023-04-26T07:56:40.497Z,0.53
2023-04-26T07:59:07.708Z,0.70
2023-04-26T08:01:34.641Z,0.80
2023-04-26T08:04:01.970Z,0.70
2023-04-26T08:06:29.365Z,0.63
2023-04-26T08:08:56.191Z,0.90
2023-04-26T08:11:23.150Z,0.80
2023-04-26T08:13:50.630Z,1.07
2023-04-26T08:16:17.834Z,0.70
2023-04-26T08:18:46.911Z,0.80
2023-04-26T08:21:14.656Z,0.90
2023-04-26T08:23:41.557Z,0.50
2023-04-26T08:26:08.902Z,0.60
2023-04-26T08:28:35.907Z,0.80
2023-04-26T08:31:03.476Z,0.70
2023-04-26T08:33:30.880Z,0.90
2023-04-26T08:36:01.216Z,0.60
2023-04-26T08:38:29.665Z,0.80
2023-04-26T08:40:56.934Z,0.80
2023-04-26T08:43:23.724Z,0.80
2023-04-26T08:45:50.960Z,0.80
2023-04-26T08:48:24.047Z,0.77
2023-04-26T08:50:51.434Z,0.70
2023-04-26T08:53:18.435Z,0.70
2023-04-26T08:55:51.509Z,0.40
2023-04-26T08:58:19.244Z,0.50
2023-04-26T09:00:48.473Z,0.43
2023-04-26T09:03:15.512Z,0.60
2023-04-26T09:05:46.072Z,0.50
2023-04-26T09:08:19.643Z,0.57
2023-04-26T09:10:46.514Z,0.60
2023-04-26T09:13:14.528Z,0.40
2023-04-26T09:15:41.775Z,0.47
2023-04-26T09:18:22.717Z,0.50
2023-04-26T09:21:04.095Z,0.40
2023-04-26T09:23:31.696Z,0.40
2023-04-26T09:26:18.707Z,0.40
2023-04-26T09:28:46.563Z,0.37
2023-04-26T09:31:23.118Z,0.47
2023-04-26T09:33:59.956Z,0.50
2023-04-26T09:36:27.784Z,0.53
2023-04-26T09:38:54.614Z,0.40
2023-04-26T09:41:21.424Z,0.40
2023-04-26T09:43:51.569Z,0.50
2023-04-26T09:46:24.972Z,0.60
2023-04-26T09:49:01.281Z,0.50
2023-04-26T09:51:29.007Z,0.40
2023-04-26T09:53:56.812Z,0.67
2023-04-26T09:56:23.706Z,0.50
2023-04-26T09:59:05.768Z,0.50
2023-04-26T10:01:33.343Z,0.67
2023-04-26T10:04:04.627Z,0.50
2023-04-26T10:06:33.047Z,0.50
2023-04-26T10:09:00.314Z,0.50
2023-04-26T10:11:27.118Z,0.47
2023-04-26T10:13:53.984Z,0.40
2023-04-26T10:16:21.630Z,0.60
2023-04-26T10:18:49.443Z,0.50
2023-04-26T10:21:32.724Z,0.40
2023-04-26T10:24:00.373Z,0.60
2023-04-26T10:26:53.497Z,0.33
2023-04-26T10:29:24.476Z,0.30
2023-04-26T10:32:08.656Z,0.50
2023-04-26T10:34:42.004Z,0.40
2023-04-26T10:37:16.526Z,0.33
2023-04-26T10:39:46.564Z,0.40
2023-04-26T10:42:30.462Z,0.50
2023-04-26T10:45:00.693Z,0.40
2023-04-26T10:47:37.397Z,0.50
2023-04-26T10:50:08.858Z,0.70
2023-04-26T10:52:37.945Z,0.60
2023-04-26T10:55:06.935Z,0.70
2023-04-26T10:57:50.592Z,0.50
2023-04-26T11:00:21.534Z,0.80
2023-04-26T11:02:57.639Z,0.57
2023-04-26T11:05:49.504Z,0.67
2023-04-26T11:08:26.406Z,0.97
2023-04-26T11:10:59.654Z,0.80
2023-04-26T11:13:29.953Z,0.73
2023-04-26T11:16:03.327Z,1.00
2023-04-26T11:18:30.850Z,0.87
2023-04-26T11:21:00.960Z,0.70
2023-04-26T11:23:29.109Z,0.80
2023-04-26T11:26:00.242Z,0.60
2023-04-26T11:28:27.152Z,0.80
2023-04-26T11:30:55.746Z,0.60
2023-04-26T11:33:24.382Z,0.60
2023-04-26T11:35:52.177Z,0.80
2023-04-26T11:38:22.218Z,0.60
2023-04-26T11:41:02.125Z,0.67
2023-04-26T11:43:41.874Z,0.67
2023-04-26T11:46:10.000Z,0.70
2023-04-26T11:48:41.349Z,0.80
2023-04-26T11:51:08.894Z,0.60
2023-04-26T11:53:40.633Z,0.60
2023-04-26T11:56:18.045Z,0.70
2023-04-26T11:58:49.416Z,0.80
2023-04-26T12:01:23.830Z,0.83
2023-04-26T12:03:52.229Z,0.73
2023-04-26T12:06:20.160Z,0.90
2023-04-26T12:08:52.158Z,0.67
2023-04-26T12:11:19.241Z,0.70
2023-04-26T12:13:47.205Z,0.60
2023-04-26T12:16:25.531Z,0.63
2023-04-26T12:18:54.514Z,1.20
2023-04-26T12:21:22.114Z,0.80
2023-04-26T12:23:49.298Z,0.63
2023-04-26T12:26:16.999Z,1.03
2023-04-26T12:28:44.011Z,0.60
2023-04-26T12:31:11.976Z,0.63
2023-04-26T12:33:46.014Z,0.70
2023-04-26T12:36:13.615Z,1.00
2023-04-26T12:38:40.646Z,0.63
2023-04-26T12:41:08.638Z,0.90
2023-04-26T12:43:36.772Z,0.70
2023-04-26T12:46:03.723Z,0.80
2023-04-26T12:48:31.258Z,0.70
2023-04-26T12:50:59.128Z,1.10
2023-04-26T12:53:25.953Z,0.60
2023-04-26T12:55:53.369Z,0.73
2023-04-26T12:58:21.772Z,0.60
2023-04-26T13:00:48.583Z,0.80
2023-04-26T13:03:15.592Z,0.50
2023-04-26T13:05:42.492Z,0.83
2023-04-26T13:08:09.770Z,0.70
2023-04-26T13:10:36.787Z,0.80
2023-04-26T13:13:04.172Z,0.60
2023-04-26T13:15:30.995Z,0.50
2023-04-26T13:17:57.851Z,0.80
2023-04-26T13:20:28.389Z,0.50
2023-04-26T13:23:05.537Z,0.50
2023-04-26T13:25:32.321Z,0.50
2023-04-26T13:28:00.105Z,0.43
2023-04-26T13:30:27.189Z,0.50
2023-04-26T13:32:56.599Z,0.70
2023-04-26T13:35:26.145Z,0.80
2023-04-26T13:37:53.753Z,0.57
2023-04-26T13:40:23.230Z,0.60
2023-04-26T13:42:50.499Z,0.50
2023-04-26T13:45:18.824Z,0.50
2023-04-26T13:47:46.376Z,0.90
2023-04-26T13:50:13.254Z,0.70
2023-04-26T13:52:40.577Z,0.60
2023-04-26T13:55:11.406Z,0.80
2023-04-26T13:57:38.302Z,0.80
2023-04-26T14:00:06.068Z,0.90
2023-04-26T14:02:35.904Z,0.50
2023-04-26T14:05:03.084Z,0.70
2023-04-26T14:07:36.561Z,0.50
2023-04-26T14:10:03.505Z,0.70
2023-04-26T14:12:30.549Z,0.50
2023-04-26T14:14:57.392Z,0.60
2023-04-26T14:17:25.795Z,0.33
2023-04-26T14:19:54.802Z,0.73
2023-04-26T14:22:22.329Z,0.60
2023-04-26T14:24:49.348Z,0.40
2023-04-26T14:27:16.453Z,0.50
2023-04-26T14:29:43.564Z,0.60
2023-04-26T14:32:10.763Z,0.50
2023-04-26T14:34:39.255Z,0.60
2023-04-26T14:37:06.877Z,0.90
2023-04-26T14:39:33.810Z,0.63
2023-04-26T14:42:01.748Z,0.77
2023-04-26T14:44:28.885Z,0.80
2023-04-26T14:46:56.438Z,0.70
2023-04-26T14:49:25.807Z,0.53
2023-04-26T14:51:53.685Z,0.50
2023-04-26T14:54:21.324Z,0.77
2023-04-26T14:56:48.856Z,0.70
2023-04-26T14:59:16.802Z,0.73
2023-04-26T15:01:44.297Z,0.70
2023-04-26T15:04:11.398Z,0.70
2023-04-26T15:06:38.371Z,0.70
2023-04-26T15:09:08.596Z,0.60
2023-04-26T15:11:35.659Z,0.60
2023-04-26T15:14:04.484Z,0.60
2023-04-26T15:16:31.808Z,0.70
2023-04-26T15:18:59.468Z,0.70
2023-04-26T15:21:27.468Z,0.60
2023-04-26T15:23:56.262Z,0.70
2023-04-26T15:26:24.725Z,0.60
2023-04-26T15:28:51.624Z,0.70
2023-04-26T15:31:18.494Z,0.67
2023-04-26T15:33:45.437Z,0.43
2023-04-26T15:36:12.250Z,0.60
2023-04-26T15:38:41.884Z,0.60
2023-04-26T15:41:08.857Z,0.90
2023-04-26T15:43:35.898Z,0.63
2023-04-26T15:46:03.078Z,0.60
2023-04-26T15:48:32.372Z,0.53
2023-04-26T15:50:59.537Z,0.43
2023-04-26T15:53:28.786Z,0.70
2023-04-26T15:55:55.571Z,0.60
2023-04-26T15:58:24.948Z,0.70
2023-04-26T16:00:51.934Z,2.00
2023-04-26T16:03:19.343Z,4.53
2023-04-26T16:05:46.429Z,5.20
2023-04-26T16:08:14.809Z,3.33
2023-04-26T16:10:44.623Z,2.17
2023-04-26T16:13:11.630Z,1.90
2023-04-26T16:15:41.008Z,1.63
2023-04-26T16:18:07.987Z,1.20
2023-04-26T16:20:35.544Z,0.97
2023-04-26T16:23:02.436Z,0.90
2023-04-26T16:25:29.897Z,1.43
2023-04-26T16:27:57.074Z,1.13
2023-04-26T16:30:24.560Z,1.47
2023-04-26T16:32:51.898Z,0.90
2023-04-26T16:35:19.638Z,1.10
2023-04-26T16:37:47.671Z,0.60
2023-04-26T16:40:14.640Z,0.70
2023-04-26T16:42:43.532Z,1.00
2023-04-26T16:45:16.341Z,0.90
2023-04-26T16:47:46.387Z,0.80
2023-04-26T16:50:13.222Z,1.10
2023-04-26T16:52:40.095Z,0.90
2023-04-26T16:55:08.809Z,0.87
2023-04-26T16:57:36.354Z,0.93
2023-04-26T17:00:05.334Z,0.97
2023-04-26T17:02:33.266Z,1.63
2023-04-26T17:05:00.524Z,1.30
2023-04-26T17:07:28.140Z,1.30
2023-04-26T17:09:55.388Z,0.90
2023-04-26T17:12:22.455Z,1.20
2023-04-26T17:14:49.272Z,0.73
2023-04-26T17:17:16.690Z,0.70
2023-04-26T17:19:43.760Z,0.83
2023-04-26T17:22:11.446Z,0.50
2023-04-26T17:24:38.288Z,0.73
2023-04-26T17:27:08.712Z,0.90
2023-04-26T17:29:35.543Z,0.70
2023-04-26T17:32:02.676Z,0.90
2023-04-26T17:34:29.526Z,1.00
2023-04-26T17:36:56.738Z,1.00
2023-04-26T17:39:23.639Z,0.80
2023-04-26T17:41:51.794Z,0.80
2023-04-26T17:44:18.723Z,0.93
2023-04-26T17:46:45.745Z,0.90
2023-04-26T17:49:12.624Z,0.80
2023-04-26T17:51:40.601Z,0.77
2023-04-26T17:54:08.444Z,0.80
2023-04-26T17:56:35.209Z,0.80
2023-04-26T17:59:03.817Z,0.90
2023-04-26T18:01:31.970Z,0.80
2023-04-26T18:03:59.733Z,0.80
2023-04-26T18:06:26.897Z,1.07
2023-04-26T18:08:53.700Z,0.70
2023-04-26T18:11:22.497Z,0.90
2023-04-26T18:13:50.822Z,0.60
2023-04-26T18:16:18.308Z,0.80
2023-04-26T18:18:47.760Z,0.73
2023-04-26T18:21:14.643Z,0.60
2023-04-26T18:23:42.336Z,0.97
2023-04-26T18:26:09.757Z,0.90
2023-04-26T18:28:37.308Z,0.87
2023-04-26T18:31:04.271Z,1.00
2023-04-26T18:33:31.999Z,1.10
2023-04-26T18:35:58.821Z,1.00
2023-04-26T18:38:29.229Z,1.20
2023-04-26T18:40:56.130Z,1.17
2023-04-26T18:43:22.994Z,1.20
2023-04-26T18:45:50.069Z,1.03
2023-04-26T18:48:17.161Z,1.00
2023-04-26T18:50:51.555Z,1.07
2023-04-26T18:53:18.772Z,1.00
2023-04-26T18:55:46.309Z,0.80
2023-04-26T18:58:16.716Z,0.90
2023-04-26T19:00:44.242Z,0.90
2023-04-26T19:03:11.301Z,0.77
2023-04-26T19:05:42.078Z,1.43
2023-04-26T19:08:09.990Z,0.97
2023-04-26T19:10:36.758Z,0.80
2023-04-26T19:13:03.785Z,0.93
2023-04-26T19:15:30.989Z,1.10
2023-04-26T19:17:58.547Z,0.90
2023-04-26T19:20:28.547Z,0.87
2023-04-26T19:22:55.386Z,1.23
2023-04-26T19:25:23.232Z,0.90
2023-04-26T19:27:52.713Z,1.03
2023-04-26T19:30:19.578Z,0.73
2023-04-26T19:32:48.529Z,0.90
2023-04-26T19:35:15.612Z,1.30
2023-04-26T19:37:44.333Z,0.90
2023-04-26T19:40:12.052Z,0.70
2023-04-26T19:42:39.347Z,1.30
2023-04-26T19:45:07.052Z,1.17
2023-04-26T19:47:34.105Z,0.90
2023-04-26T19:50:01.678Z,1.00
2023-04-26T19:52:28.432Z,0.90
2023-04-26T19:54:56.019Z,0.80
2023-04-26T19:57:23.045Z,1.20
2023-04-26T19:59:49.865Z,1.20
2023-04-26T20:02:16.802Z,1.00
2023-04-26T20:04:44.827Z,1.13
2023-04-26T20:07:13.284Z,1.00
2023-04-26T20:09:40.284Z,1.00
2023-04-26T20:12:08.783Z,1.10
2023-04-26T20:14:37.563Z,1.00
2023-04-26T20:17:04.556Z,1.00
2023-04-26T20:19:32.237Z,0.90
2023-04-26T20:21:59.299Z,1.10
2023-04-26T20:24:29.239Z,1.20
2023-04-26T20:26:56.489Z,1.20
2023-04-26T20:29:24.494Z,1.03
2023-04-26T20:31:51.866Z,1.10
2023-04-26T20:34:18.709Z,1.00
2023-04-26T20:36:45.527Z,1.10
2023-04-26T20:39:12.371Z,1.07
2023-04-26T20:41:39.322Z,1.17
2023-04-26T20:44:06.222Z,1.47
2023-04-26T20:46:35.170Z,1.40
2023-04-26T20:49:03.378Z,1.10
2023-04-26T20:51:30.162Z,1.23
2023-04-26T20:53:56.982Z,1.80
2023-04-26T20:56:23.848Z,1.23
2023-04-26T20:58:50.712Z,1.10
2023-04-26T21:01:17.815Z,1.20
2023-04-26T21:03:44.921Z,1.40
2023-04-26T21:06:12.138Z,1.20
2023-04-26T21:08:42.362Z,1.67
2023-04-26T21:11:09.349Z,1.50
2023-04-26T21:13:36.829Z,1.07
2023-04-26T21:16:03.763Z,1.40
2023-04-26T21:18:31.214Z,1.10
2023-04-26T21:20:58.076Z,1.20
2023-04-26T21:23:25.604Z,1.00
2023-04-26T21:25:52.509Z,0.90
2023-04-26T21:28:19.297Z,1.00
2023-04-26T21:30:46.070Z,1.50
2023-04-26T21:33:13.268Z,1.30
2023-04-26T21:35:40.470Z,1.10
2023-04-26T21:38:07.255Z,1.20
2023-04-26T21:40:34.321Z,1.20
2023-04-26T21:43:05.174Z,1.23
2023-04-26T21:45:32.468Z,1.03
2023-04-26T21:47:59.397Z,1.10
2023-04-26T21:50:26.812Z,1.40
2023-04-26T21:52:53.639Z,1.00
2023-04-26T21:55:20.511Z,1.33
2023-04-26T21:57:47.941Z,1.30
2023-04-26T22:00:15.019Z,1.33
2023-04-26T22:02:42.062Z,1.40
2023-04-26T22:05:09.344Z,1.53
2023-04-26T22:07:36.196Z,1.23
2023-04-26T22:10:04.896Z,1.10
2023-04-26T22:12:32.238Z,1.03
2023-04-26T22:14:59.066Z,0.97
2023-04-26T22:17:26.560Z,0.93
2023-04-26T22:19:55.764Z,0.90
2023-04-26T22:22:22.549Z,1.20
2023-04-26T22:24:50.406Z,1.20
2023-04-26T22:27:17.265Z,1.37
2023-04-26T22:29:44.075Z,1.17
2023-04-26T22:32:11.007Z,1.10
2023-04-26T22:34:38.453Z,1.30
2023-04-26T22:37:19.782Z,1.43
2023-04-26T22:39:47.607Z,1.40
2023-04-26T22:42:14.460Z,1.10
2023-04-26T22:44:41.970Z,1.40
2023-04-26T22:47:09.182Z,1.13
2023-04-26T22:49:36.757Z,1.60
2023-04-26T22:52:09.703Z,0.70
2023-04-26T22:54:41.188Z,1.27
2023-04-26T22:57:08.345Z,1.37
2023-04-26T22:59:35.237Z,1.23
2023-04-26T23:02:03.832Z,1.07
2023-04-26T23:04:31.416Z,1.33
2023-04-26T23:06:58.390Z,1.20
2023-04-26T23:09:25.936Z,1.23
2023-04-26T23:11:52.917Z,1.30
2023-04-26T23:14:20.515Z,1.07
2023-04-26T23:16:47.436Z,1.20
2023-04-26T23:19:15.206Z,1.40
2023-04-26T23:21:42.135Z,1.50
2023-04-26T23:24:09.828Z,1.20
2023-04-26T23:26:36.591Z,1.03
2023-04-26T23:29:03.563Z,1.37
2023-04-26T23:31:30.618Z,1.07
2023-04-26T23:33:57.758Z,1.30
2023-04-26T23:36:24.587Z,1.03
2023-04-26T23:38:52.170Z,1.20
2023-04-26T23:41:18.947Z,1.43
2023-04-26T23:43:45.943Z,1.40
2023-04-26T23:46:12.841Z,1.40
2023-04-26T23:48:39.636Z,1.07
2023-04-26T23:51:06.953Z,1.20
2023-04-26T23:53:33.834Z,1.27
2023-04-26T23:56:00.633Z,1.93
2023-04-26T23:58:27.519Z,1.30
